Time;durP1;ratioP1;P1;durP2;ratioP2;P2;SDS_P1;SDS_P2;PMS_P1;PMS_P2;Temp;Humidity;BMP_temperature;BMP_pressure;BME280_temperature;BME280_humidity;BME280_pressure;Samples;Min_cycle;Max_cycle;Signal;HPM_P1;HPM_P2
2023/09/18 00:00:25;;;;;;;10.10;5.47;;;20.70;99.90;;;;;;4976476;28;20534;-78
2023/09/18 00:02:52;;;;;;;6.63;5.60;;;20.70;99.90;;;;;;4977261;28;20461;-77
2023/09/18 00:05:19;;;;;;;6.80;5.27;;;20.70;99.90;;;;;;4976989;28;20487;-77
2023/09/18 00:07:46;;;;;;;10.47;5.63;;;20.70;99.90;;;;;;4976576;28;20451;-77
2023/09/18 00:10:13;;;;;;;6.73;5.67;;;20.70;99.90;;;;;;4976439;28;20467;-77
2023/09/18 00:12:41;;;;;;;7.23;4.70;;;20.60;99.90;;;;;;4972642;28;20464;-77
2023/09/18 00:15:10;;;;;;;5.53;4.50;;;20.60;99.90;;;;;;4976767;28;20876;-78
2023/09/18 00:17:37;;;;;;;8.67;5.00;;;20.60;99.90;;;;;;4969060;28;20462;-77
2023/09/18 00:20:06;;;;;;;7.90;5.10;;;20.60;99.90;;;;;;4976623;28;20454;-77
2023/09/18 00:22:33;;;;;;;7.90;5.63;;;20.60;99.90;;;;;;4975883;28;20460;-77
2023/09/18 00:25:01;;;;;;;7.50;6.07;;;20.60;99.90;;;;;;4975941;28;21025;-77
2023/09/18 00:27:28;;;;;;;9.03;5.77;;;20.60;99.90;;;;;;4975430;28;20503;-77
2023/09/18 00:29:55;;;;;;;6.33;4.90;;;20.50;99.90;;;;;;4972488;28;20476;-78
2023/09/18 00:32:23;;;;;;;8.50;4.90;;;20.50;99.90;;;;;;4975146;28;20471;-76
2023/09/18 00:34:49;;;;;;;10.00;6.00;;;20.50;99.90;;;;;;4974952;28;20455;-76
2023/09/18 00:37:17;;;;;;;6.90;5.50;;;20.50;99.90;;;;;;4975028;28;20466;-80
2023/09/18 00:39:43;;;;;;;5.90;5.00;;;20.50;99.90;;;;;;4975465;28;20533;-77
2023/09/18 00:42:13;;;;;;;5.70;5.00;;;20.50;99.90;;;;;;4975431;28;20470;-77
2023/09/18 00:44:40;;;;;;;5.93;5.33;;;20.40;99.90;;;;;;4975369;28;20487;-76
2023/09/18 00:47:08;;;;;;;6.13;5.53;;;20.40;99.90;;;;;;4975432;28;20554;-76
2023/09/18 00:49:37;;;;;;;8.63;5.50;;;20.40;99.90;;;;;;4967082;28;20478;-77
2023/09/18 00:52:06;;;;;;;8.37;5.40;;;20.40;99.90;;;;;;4974508;28;20540;-77
2023/09/18 00:54:35;;;;;;;7.07;5.10;;;20.40;99.90;;;;;;4974584;28;20459;-77
2023/09/18 00:57:02;;;;;;;7.80;5.83;;;20.40;99.90;;;;;;4974529;28;20840;-77
2023/09/18 00:59:29;;;;;;;6.40;5.00;;;20.40;99.90;;;;;;4974644;28;20533;-79
2023/09/18 01:01:56;;;;;;;7.20;6.30;;;20.40;99.90;;;;;;4974685;28;20462;-78
2023/09/18 01:04:25;;;;;;;8.20;5.47;;;20.30;99.90;;;;;;4975014;28;20488;-77
2023/09/18 01:06:54;;;;;;;10.60;5.13;;;20.30;99.90;;;;;;4974960;28;20531;-77
2023/09/18 01:09:21;;;;;;;5.77;5.20;;;20.30;99.90;;;;;;4974808;28;20487;-77
2023/09/18 01:11:56;;;;;;;8.00;5.50;;;20.30;99.90;;;;;;4974507;28;20467;-77
2023/09/18 01:14:34;;;;;;;8.87;5.87;;;20.30;99.90;;;;;;4975005;28;20490;-78
2023/09/18 01:17:04;;;;;;;9.07;5.40;;;20.30;99.90;;;;;;4974730;28;20563;-78
2023/09/18 01:19:41;;;;;;;7.63;5.83;;;20.30;99.90;;;;;;4973966;28;20487;-77
2023/09/18 01:22:11;;;;;;;7.10;5.03;;;20.30;99.90;;;;;;4975290;28;20473;-78
2023/09/18 01:24:41;;;;;;;5.60;5.10;;;20.30;99.90;;;;;;4966748;28;20487;-78
2023/09/18 01:27:10;;;;;;;6.83;5.40;;;20.30;99.90;;;;;;4974633;28;20846;-77
2023/09/18 01:29:36;;;;;;;7.37;6.60;;;20.30;99.90;;;;;;4971943;28;20476;-77
2023/09/18 01:32:04;;;;;;;10.50;5.10;;;20.20;99.90;;;;;;4974111;28;20455;-77
2023/09/18 01:34:35;;;;;;;10.50;5.87;;;20.20;99.90;;;;;;4974683;28;20462;-79
2023/09/18 01:37:04;;;;;;;14.13;6.10;;;20.20;99.90;;;;;;4976057;28;20514;-78
2023/09/18 01:39:34;;;;;;;7.20;5.43;;;20.20;99.90;;;;;;4974718;28;20603;-78
2023/09/18 01:42:05;;;;;;;8.10;5.70;;;20.20;99.90;;;;;;4976169;28;20486;-78
2023/09/18 01:44:32;;;;;;;6.83;4.90;;;20.20;99.90;;;;;;4976065;28;20883;-77
2023/09/18 01:47:00;;;;;;;6.33;5.47;;;20.20;99.90;;;;;;4975360;28;20459;-77
2023/09/18 01:49:30;;;;;;;8.30;5.43;;;20.20;99.90;;;;;;4977461;28;20475;-77
2023/09/18 01:51:57;;;;;;;9.13;5.27;;;20.30;99.90;;;;;;4980535;28;20459;-77
2023/09/18 01:54:25;;;;;;;6.33;5.67;;;20.30;99.90;;;;;;4980039;28;20554;-77
2023/09/18 01:56:53;;;;;;;5.40;4.90;;;20.30;99.90;;;;;;4980411;28;20455;-77
2023/09/18 01:59:21;;;;;;;6.33;5.10;;;20.30;99.90;;;;;;4978351;28;20483;-77
2023/09/18 02:01:49;;;;;;;5.10;4.60;;;20.30;99.90;;;;;;4973574;28;20555;-77
2023/09/18 02:04:15;;;;;;;5.90;5.13;;;20.30;99.90;;;;;;4973732;28;20456;-77
2023/09/18 02:06:42;;;;;;;6.40;5.43;;;20.30;99.90;;;;;;4973620;28;20491;-77
2023/09/18 02:09:09;;;;;;;7.40;5.67;;;20.20;99.90;;;;;;4973409;28;20871;-77
2023/09/18 02:11:38;;;;;;;7.60;5.90;;;20.30;99.90;;;;;;4970309;28;20486;-77
2023/09/18 02:14:05;;;;;;;6.60;5.87;;;20.30;99.90;;;;;;4969951;28;20455;-77
2023/09/18 02:16:35;;;;;;;7.47;5.50;;;20.30;99.90;;;;;;4973843;28;20888;-77
2023/09/18 02:19:02;;;;;;;9.10;6.13;;;20.30;99.90;;;;;;4970299;28;20489;-77
2023/09/18 02:21:29;;;;;;;7.20;5.23;;;20.30;99.90;;;;;;4972884;28;20468;-77
2023/09/18 02:23:56;;;;;;;7.63;6.10;;;20.30;99.90;;;;;;4973782;28;20467;-78
2023/09/18 02:26:25;;;;;;;7.60;6.40;;;20.30;99.90;;;;;;4973712;28;20588;-77
2023/09/18 02:28:53;;;;;;;9.43;5.53;;;20.30;99.90;;;;;;4973300;28;20861;-78
2023/09/18 02:31:20;;;;;;;10.60;5.40;;;20.30;99.90;;;;;;4973598;28;20522;-78
2023/09/18 02:33:48;;;;;;;7.53;5.40;;;20.30;99.90;;;;;;4973273;28;20471;-77
2023/09/18 02:36:15;;;;;;;6.33;5.37;;;20.30;99.90;;;;;;4977080;28;20459;-77
2023/09/18 02:38:42;;;;;;;7.00;5.57;;;20.30;99.90;;;;;;4977199;28;20479;-77
2023/09/18 02:41:09;;;;;;;8.87;6.27;;;20.40;99.90;;;;;;4978172;28;20495;-77
2023/09/18 02:43:37;;;;;;;6.43;5.33;;;20.40;99.90;;;;;;4978034;28;20463;-78
2023/09/18 02:46:05;;;;;;;8.10;5.60;;;20.30;99.90;;;;;;4977819;28;20937;-77
2023/09/18 02:48:32;;;;;;;6.70;4.53;;;20.30;99.90;;;;;;4977655;28;20479;-77
2023/09/18 02:51:00;;;;;;;5.33;4.83;;;20.30;99.90;;;;;;4978979;28;20463;-77
2023/09/18 02:53:27;;;;;;;6.57;5.03;;;20.30;99.90;;;;;;4981839;28;20827;-79
2023/09/18 02:55:56;;;;;;;6.03;4.90;;;20.30;99.90;;;;;;4980013;28;20456;-78
2023/09/18 02:58:25;;;;;;;6.10;5.33;;;20.30;99.90;;;;;;4979958;28;20490;-79
2023/09/18 03:00:53;;;;;;;6.00;5.40;;;20.30;99.90;;;;;;4982513;28;20519;-79
2023/09/18 03:03:21;;;;;;;5.17;4.67;;;20.30;99.90;;;;;;4989700;28;20459;-78
2023/09/18 03:05:47;;;;;;;7.00;5.90;;;20.30;99.90;;;;;;4982065;28;21117;-79
2023/09/18 03:08:16;;;;;;;5.43;4.93;;;20.30;99.90;;;;;;4980909;28;20850;-78
2023/09/18 03:10:44;;;;;;;10.87;6.20;;;20.40;99.90;;;;;;4980028;28;20996;-78
2023/09/18 03:13:12;;;;;;;6.73;4.77;;;20.30;99.90;;;;;;4978642;28;20547;-78
2023/09/18 03:15:39;;;;;;;6.70;6.00;;;20.30;99.90;;;;;;4978917;28;20459;-78
2023/09/18 03:18:08;;;;;;;7.07;5.67;;;20.30;99.90;;;;;;4978599;28;20512;-78
2023/09/18 03:20:34;;;;;;;6.33;5.00;;;20.30;99.90;;;;;;4971499;28;20456;-77
2023/09/18 03:23:03;;;;;;;6.53;5.50;;;20.30;99.90;;;;;;4978555;28;20463;-77
2023/09/18 03:25:31;;;;;;;5.03;4.50;;;20.30;99.90;;;;;;4978539;28;20503;-78
2023/09/18 03:27:59;;;;;;;8.17;4.80;;;20.30;99.90;;;;;;4978488;28;20477;-78
2023/09/18 03:30:26;;;;;;;6.10;4.67;;;20.30;99.90;;;;;;4978130;28;20469;-78
2023/09/18 03:32:53;;;;;;;6.03;4.37;;;20.30;99.90;;;;;;4978327;28;20460;-78
2023/09/18 03:35:20;;;;;;;9.90;4.53;;;20.30;99.90;;;;;;4978366;28;20460;-78
2023/09/18 03:37:48;;;;;;;6.00;3.70;;;20.40;99.90;;;;;;4978123;28;20459;-79
2023/09/18 03:40:15;;;;;;;7.37;4.37;;;20.40;99.90;;;;;;4978391;28;20957;-77
2023/09/18 03:42:44;;;;;;;5.70;4.20;;;20.50;99.90;;;;;;4978137;28;20549;-79
2023/09/18 03:45:11;;;;;;;6.80;4.40;;;20.50;99.90;;;;;;4978115;28;20470;-78
2023/09/18 03:47:39;;;;;;;4.67;3.87;;;20.60;99.90;;;;;;4975275;28;20466;-78
2023/09/18 03:50:08;;;;;;;5.93;3.73;;;20.60;99.90;;;;;;4976895;28;20455;-78
2023/09/18 03:52:35;;;;;;;6.90;3.80;;;20.60;99.90;;;;;;4976886;28;20455;-78
2023/09/18 03:55:02;;;;;;;6.77;4.40;;;20.60;99.90;;;;;;4977489;28;20483;-77
2023/09/18 03:57:29;;;;;;;10.00;3.93;;;20.60;99.90;;;;;;4977107;28;21066;-78
2023/09/18 03:59:57;;;;;;;7.53;3.90;;;20.70;99.90;;;;;;4976877;28;20511;-77
2023/09/18 04:02:25;;;;;;;7.33;4.60;;;20.70;99.90;;;;;;4976664;28;20968;-77
2023/09/18 04:04:52;;;;;;;5.10;3.90;;;20.70;99.90;;;;;;4972172;28;20451;-78
2023/09/18 04:07:19;;;;;;;6.83;4.53;;;20.70;99.90;;;;;;4977299;28;20487;-79
2023/09/18 04:09:46;;;;;;;6.30;4.03;;;20.80;99.90;;;;;;4977124;28;20480;-78
2023/09/18 04:12:13;;;;;;;4.97;4.00;;;20.80;99.90;;;;;;4977851;28;20482;-78
2023/09/18 04:14:40;;;;;;;6.03;3.93;;;20.80;99.90;;;;;;4978598;28;20527;-81
2023/09/18 04:17:08;;;;;;;6.17;3.90;;;20.80;99.90;;;;;;4977759;28;20523;-78
2023/09/18 04:19:35;;;;;;;4.60;4.20;;;20.80;99.90;;;;;;4977072;28;20479;-78
2023/09/18 04:22:02;;;;;;;8.50;4.40;;;20.80;99.90;;;;;;4977945;28;20455;-79
2023/09/18 04:24:29;;;;;;;5.00;3.93;;;20.80;99.90;;;;;;4977446;28;20459;-78
2023/09/18 04:26:55;;;;;;;4.37;3.63;;;20.80;99.90;;;;;;4979504;28;21169;-78
2023/09/18 04:29:22;;;;;;;6.30;3.50;;;20.80;99.90;;;;;;4979702;28;21029;-78
2023/09/18 04:31:51;;;;;;;4.17;3.77;;;20.80;99.90;;;;;;4976686;28;20969;-78
2023/09/18 04:34:19;;;;;;;4.63;3.60;;;20.70;99.90;;;;;;4978804;28;20471;-77
2023/09/18 04:36:46;;;;;;;6.17;3.90;;;20.80;99.90;;;;;;4980155;28;20455;-78
2023/09/18 04:39:14;;;;;;;9.03;4.90;;;20.80;99.90;;;;;;4986701;28;20497;-77
2023/09/18 04:41:40;;;;;;;6.60;4.20;;;20.80;99.90;;;;;;4986800;28;20945;-78
2023/09/18 04:44:07;;;;;;;7.07;3.80;;;20.70;99.90;;;;;;4981178;28;20551;-78
2023/09/18 04:46:35;;;;;;;4.93;3.50;;;20.70;99.90;;;;;;4976441;28;20589;-77
2023/09/18 04:49:03;;;;;;;6.23;4.03;;;20.80;99.90;;;;;;4971364;28;20512;-79
2023/09/18 04:51:32;;;;;;;6.63;4.07;;;20.90;99.90;;;;;;4975954;28;20468;-78
2023/09/18 04:53:59;;;;;;;9.17;4.43;;;20.90;99.90;;;;;;4974633;28;20459;-76
2023/09/18 04:56:26;;;;;;;7.10;3.80;;;20.90;99.90;;;;;;4975741;28;20458;-77
2023/09/18 04:58:53;;;;;;;8.60;3.70;;;21.00;99.90;;;;;;4964630;28;20503;-77
2023/09/18 05:01:20;;;;;;;8.13;3.77;;;21.00;99.90;;;;;;4972832;28;20466;-76
2023/09/18 05:03:49;;;;;;;6.73;3.87;;;21.00;99.90;;;;;;4974534;28;20456;-76
2023/09/18 05:06:17;;;;;;;8.97;5.00;;;21.00;99.90;;;;;;4973863;28;20887;-77
2023/09/18 05:08:46;;;;;;;4.23;3.67;;;21.10;99.90;;;;;;4971254;28;20484;-76
2023/09/18 05:11:13;;;;;;;10.30;3.90;;;21.00;99.90;;;;;;4945599;28;20892;-75
2023/09/18 05:13:40;;;;;;;9.23;4.43;;;21.00;99.90;;;;;;4850640;28;20836;-77
2023/09/18 05:16:08;;;;;;;11.00;4.33;;;21.00;99.90;;;;;;4793218;28;20451;-74
2023/09/18 05:18:36;;;;;;;5.70;4.00;;;20.90;99.90;;;;;;4787472;28;20480;-77
2023/09/18 05:21:04;;;;;;;6.23;4.30;;;21.00;99.90;;;;;;4799257;28;20463;-77
2023/09/18 05:23:31;;;;;;;10.97;4.70;;;21.00;99.90;;;;;;4798049;28;20460;-77
2023/09/18 05:26:00;;;;;;;5.20;3.97;;;21.00;99.90;;;;;;4780506;28;20591;-76
2023/09/18 05:28:27;;;;;;;9.73;4.87;;;21.00;99.90;;;;;;4790080;28;22294;-76
2023/09/18 05:30:54;;;;;;;7.03;3.87;;;21.00;99.90;;;;;;4809969;28;21884;-76
2023/09/18 05:33:22;;;;;;;9.13;4.50;;;21.00;99.90;;;;;;4806542;28;20455;-77
2023/09/18 05:35:49;;;;;;;7.70;4.53;;;21.00;99.90;;;;;;4799720;28;20972;-75
2023/09/18 05:38:17;;;;;;;6.60;3.50;;;21.00;99.90;;;;;;4795796;28;21867;-74
2023/09/18 05:40:45;;;;;;;9.40;3.97;;;21.10;99.90;;;;;;4803545;28;22012;-77
2023/09/18 05:43:15;;;;;;;6.43;4.00;;;21.10;99.90;;;;;;4801844;28;20476;-79
2023/09/18 05:45:41;;;;;;;7.60;4.67;;;21.10;99.90;;;;;;4800608;28;20961;-74
2023/09/18 05:48:09;;;;;;;6.03;3.80;;;21.10;99.90;;;;;;4799490;28;20479;-75
2023/09/18 05:50:41;;;;;;;6.30;3.97;;;21.00;99.90;;;;;;4818647;28;20550;-75
2023/09/18 05:53:11;;;;;;;6.73;3.53;;;21.00;99.90;;;;;;4801659;28;20574;-75
2023/09/18 05:55:38;;;;;;;8.67;4.50;;;21.00;99.90;;;;;;4801538;28;20476;-73
2023/09/18 05:58:06;;;;;;;12.53;4.10;;;20.90;99.90;;;;;;4796537;28;20476;-77
2023/09/18 06:00:36;;;;;;;6.10;3.87;;;21.00;99.90;;;;;;4786485;28;20475;-74
2023/09/18 06:03:05;;;;;;;7.30;3.43;;;20.90;99.90;;;;;;4785672;28;20465;-76
2023/09/18 06:05:34;;;;;;;9.80;4.60;;;20.90;99.90;;;;;;4765509;28;20468;-74
2023/09/18 06:08:01;;;;;;;6.37;3.67;;;21.00;99.90;;;;;;4769425;28;21077;-74
2023/09/18 06:10:28;;;;;;;11.87;4.97;;;21.00;99.90;;;;;;4764354;28;20590;-74
2023/09/18 06:12:55;;;;;;;5.60;4.07;;;21.00;99.90;;;;;;4775727;28;21318;-75
2023/09/18 06:15:24;;;;;;;5.63;3.40;;;21.10;99.90;;;;;;4793494;28;20463;-74
2023/09/18 06:17:55;;;;;;;11.67;3.83;;;21.10;99.90;;;;;;4784740;28;20475;-74
2023/09/18 06:20:22;;;;;;;6.57;3.40;;;21.10;99.90;;;;;;4810018;28;20483;-75
2023/09/18 06:23:00;;;;;;;6.87;3.40;;;21.10;99.90;;;;;;4807086;28;20887;-75
2023/09/18 06:25:33;;;;;;;6.07;3.13;;;21.00;99.90;;;;;;4798985;28;20510;-74
2023/09/18 06:28:04;;;;;;;7.70;4.10;;;21.00;99.90;;;;;;4792042;28;20499;-73
2023/09/18 06:30:36;;;;;;;7.07;3.50;;;21.10;99.90;;;;;;4797760;28;20997;-75
2023/09/18 06:33:07;;;;;;;8.17;3.20;;;21.20;99.90;;;;;;4800338;28;20456;-74
2023/09/18 06:35:34;;;;;;;7.07;3.93;;;21.10;99.90;;;;;;4795696;28;20564;-76
2023/09/18 06:38:01;;;;;;;5.33;3.27;;;21.10;99.90;;;;;;4788220;28;20481;-75
2023/09/18 06:40:29;;;;;;;6.67;3.13;;;21.10;99.90;;;;;;4792028;28;21162;-75
2023/09/18 06:42:59;;;;;;;5.70;2.70;;;21.20;99.90;;;;;;4783083;28;20965;-78
2023/09/18 06:45:27;;;;;;;6.20;3.30;;;21.20;99.90;;;;;;4802483;28;20472;-74
2023/09/18 06:47:54;;;;;;;5.00;2.87;;;21.20;99.90;;;;;;4805366;28;20495;-76
2023/09/18 06:50:23;;;;;;;7.53;3.90;;;21.20;99.90;;;;;;4811435;28;20982;-77
2023/09/18 06:52:50;;;;;;;7.00;3.20;;;21.20;99.90;;;;;;4799570;28;21107;-77
2023/09/18 06:55:20;;;;;;;6.90;2.60;;;21.30;99.90;;;;;;4807096;28;21274;-77
2023/09/18 06:57:47;;;;;;;8.90;2.77;;;21.20;99.90;;;;;;4807513;28;21830;-77
2023/09/18 07:00:18;;;;;;;7.47;2.70;;;21.20;99.90;;;;;;4805576;28;20568;-75
2023/09/18 07:02:45;;;;;;;4.60;2.33;;;21.20;99.90;;;;;;4806725;28;21910;-74
2023/09/18 07:05:12;;;;;;;8.97;3.53;;;21.20;99.90;;;;;;4818100;28;21434;-78
2023/09/18 07:07:40;;;;;;;6.43;2.53;;;21.20;99.90;;;;;;4799341;28;20511;-81
2023/09/18 07:10:08;;;;;;;5.13;3.13;;;21.30;99.90;;;;;;4802866;28;21009;-76
2023/09/18 07:12:36;;;;;;;6.10;2.90;;;21.30;99.90;;;;;;4797605;28;22339;-76
2023/09/18 07:15:04;;;;;;;7.23;2.57;;;21.30;99.90;;;;;;4809279;28;20464;-79
2023/09/18 07:17:31;;;;;;;5.90;2.80;;;21.30;99.90;;;;;;4807642;28;20847;-74
2023/09/18 07:19:59;;;;;;;9.03;3.30;;;21.40;99.90;;;;;;4793072;28;21871;-76
2023/09/18 07:22:26;;;;;;;5.60;2.83;;;21.50;99.90;;;;;;4815283;28;21173;-76
2023/09/18 07:24:55;;;;;;;4.93;2.23;;;21.40;99.90;;;;;;4811628;28;20459;-77
2023/09/18 07:27:26;;;;;;;4.53;2.27;;;21.40;99.90;;;;;;4813423;28;20495;-78
2023/09/18 07:29:56;;;;;;;9.40;2.50;;;21.50;99.90;;;;;;4821827;28;20490;-75
2023/09/18 07:32:24;;;;;;;3.90;2.07;;;21.60;99.90;;;;;;4804574;28;20464;-75
2023/09/18 07:34:51;;;;;;;3.20;1.97;;;21.70;99.90;;;;;;4813181;28;20460;-75
2023/09/18 07:37:20;;;;;;;4.90;2.33;;;21.70;99.90;;;;;;4803609;28;20494;-75
2023/09/18 07:39:48;;;;;;;8.53;2.50;;;21.80;99.90;;;;;;4803113;28;21661;-76
2023/09/18 07:42:16;;;;;;;5.03;2.10;;;21.80;99.90;;;;;;4801851;28;20465;-77
2023/09/18 07:44:43;;;;;;;4.60;2.20;;;21.80;99.90;;;;;;4805900;28;20478;-77
2023/09/18 07:47:09;;;;;;;5.80;2.67;;;21.90;99.90;;;;;;4800360;28;20499;-76
2023/09/18 07:49:36;;;;;;;7.60;1.93;;;21.90;99.90;;;;;;4813428;28;20480;-76
2023/09/18 07:52:03;;;;;;;5.60;2.13;;;22.00;99.90;;;;;;4805972;28;20842;-77
2023/09/18 07:54:30;;;;;;;4.00;2.10;;;22.00;99.90;;;;;;4807176;28;20934;-76
2023/09/18 07:57:03;;;;;;;5.53;2.60;;;21.90;93.70;;;;;;4807414;28;20456;-75
2023/09/18 07:59:31;;;;;;;6.77;2.50;;;22.00;95.10;;;;;;4899308;28;20505;-77
2023/09/18 08:01:58;;;;;;;5.07;2.17;;;22.00;99.90;;;;;;4959063;28;20460;-77
2023/09/18 08:04:25;;;;;;;4.70;2.60;;;22.00;99.90;;;;;;4962153;28;20478;-75
2023/09/18 08:06:51;;;;;;;3.27;1.80;;;22.00;99.90;;;;;;4967671;28;20484;-76
2023/09/18 08:09:18;;;;;;;3.90;2.23;;;22.00;99.90;;;;;;4962139;28;20473;-76
2023/09/18 08:11:45;;;;;;;4.90;2.00;;;21.90;99.90;;;;;;4969134;28;20509;-77
2023/09/18 08:14:12;;;;;;;3.03;2.27;;;22.00;99.90;;;;;;4965600;28;20475;-75
2023/09/18 08:16:40;;;;;;;5.70;2.30;;;22.00;99.90;;;;;;4963691;28;20460;-75
2023/09/18 08:19:07;;;;;;;10.67;2.60;;;22.00;99.90;;;;;;4968105;28;20486;-76
2023/09/18 08:21:34;;;;;;;4.23;1.93;;;22.00;99.90;;;;;;4972400;28;20459;-77
2023/09/18 08:24:01;;;;;;;4.17;2.07;;;22.10;99.90;;;;;;4964071;28;20987;-76
2023/09/18 08:26:28;;;;;;;8.30;2.20;;;22.00;99.90;;;;;;4959669;28;20554;-77
2023/09/18 08:28:55;;;;;;;4.63;2.17;;;22.00;99.90;;;;;;4968018;28;21019;-75
2023/09/18 08:31:23;;;;;;;4.90;2.13;;;21.80;90.10;;;;;;4968400;28;20881;-77
2023/09/18 08:33:51;;;;;;;6.17;2.00;;;21.90;92.30;;;;;;4965280;28;20464;-77
2023/09/18 08:36:18;;;;;;;3.97;1.87;;;21.90;99.90;;;;;;4966745;28;20464;-76
2023/09/18 08:38:46;;;;;;;4.53;1.90;;;21.80;72.90;;;;;;4963530;28;20484;-77
2023/09/18 08:41:14;;;;;;;2.87;1.90;;;21.80;84.50;;;;;;4961929;28;20543;-76
2023/09/18 08:43:44;;;;;;;2.63;1.50;;;21.80;90.20;;;;;;4959569;28;20452;-77
2023/09/18 08:46:11;;;;;;;2.87;1.67;;;21.80;99.90;;;;;;4962356;28;20463;-76
2023/09/18 08:48:40;;;;;;;4.93;1.97;;;21.80;89.40;;;;;;4960679;28;20521;-77
2023/09/18 08:51:09;;;;;;;4.73;2.00;;;21.90;93.10;;;;;;4962542;28;20453;-77
2023/09/18 08:53:37;;;;;;;6.23;1.87;;;22.00;99.90;;;;;;4964197;28;20455;-77
2023/09/18 08:56:05;;;;;;;3.87;1.77;;;22.00;87.70;;;;;;4966002;28;20881;-76
2023/09/18 08:58:35;;;;;;;3.30;1.73;;;22.00;41.70;;;;;;4968739;28;20475;-78
2023/09/18 09:01:03;;;;;;;3.90;2.27;;;22.10;73.10;;;;;;4961516;28;20447;-76
2023/09/18 09:03:30;;;;;;;3.17;1.70;;;22.00;15.60;;;;;;4962846;28;20464;-76
2023/09/18 09:06:00;;;;;;;3.30;1.70;;;22.00;19.50;;;;;;4961350;28;20454;-79
2023/09/18 09:08:29;;;;;;;4.50;1.57;;;22.10;36.40;;;;;;4964584;28;21043;-77
2023/09/18 09:10:57;;;;;;;4.17;1.60;;;22.00;18.00;;;;;;4967224;28;20467;-83
2023/09/18 09:13:26;;;;;;;4.20;1.83;;;22.10;44.50;;;;;;4965619;28;20468;-76
2023/09/18 09:15:55;;;;;;;5.50;2.00;;;22.10;10.30;;;;;;4957716;28;20492;-76
2023/09/18 09:18:23;;;;;;;3.90;1.97;;;22.10;20.60;;;;;;4970431;28;20480;-76
2023/09/18 09:20:58;;;;;;;3.80;1.70;;;22.10;1.00;;;;;;4963474;28;20467;-77
2023/09/18 09:23:26;;;;;;;3.40;1.63;;;22.20;55.80;;;;;;4963083;28;21012;-76
2023/09/18 09:25:54;;;;;;;4.10;1.93;;;22.20;4.40;;;;;;4968661;28;20551;-76
2023/09/18 09:28:31;;;;;;;4.53;1.60;;;22.30;4.10;;;;;;4962341;28;20522;-77
2023/09/18 09:31:02;;;;;;;3.83;1.70;;;22.50;1.00;;;;;;4963797;28;20557;-78
2023/09/18 09:33:29;;;;;;;2.87;1.33;;;22.40;1.00;;;;;;4958774;28;20545;-77
2023/09/18 09:35:57;;;;;;;5.27;1.83;;;22.50;1.00;;;;;;4966659;28;20458;-77
2023/09/18 09:38:31;;;;;;;4.80;1.80;;;22.30;1.00;;;;;;4958255;28;20468;-77
2023/09/18 09:41:00;;;;;;;2.83;1.60;;;22.40;1.00;;;;;;4964899;28;20476;-78
2023/09/18 09:43:28;;;;;;;4.80;1.80;;;22.40;1.00;;;;;;4963161;28;20484;-76
2023/09/18 09:45:59;;;;;;;4.83;2.30;;;22.40;1.00;;;;;;4963954;28;20550;-76
2023/09/18 09:48:26;;;;;;;4.80;1.70;;;22.30;1.00;;;;;;4956682;28;20504;-77
2023/09/18 09:50:59;;;;;;;5.40;2.00;;;22.40;1.00;;;;;;4958208;28;20464;-77
2023/09/18 09:53:44;;;;;;;3.23;1.70;;;22.40;1.00;;;;;;4960166;28;20551;-77
2023/09/18 09:56:12;;;;;;;4.87;2.20;;;22.50;1.00;;;;;;4963667;28;20487;-76
2023/09/18 09:58:43;;;;;;;3.60;1.50;;;22.50;1.00;;;;;;4966192;28;20475;-77
2023/09/18 10:01:18;;;;;;;5.93;2.40;;;22.60;1.00;;;;;;4969538;28;20910;-77
2023/09/18 10:03:46;;;;;;;3.23;1.30;;;22.60;1.00;;;;;;4963843;28;20453;-78
2023/09/18 10:06:14;;;;;;;5.80;1.87;;;22.80;1.00;;;;;;4959512;28;20458;-77
2023/09/18 10:08:42;;;;;;;6.30;2.10;;;22.90;1.00;;;;;;4957130;28;20501;-76
2023/09/18 10:11:16;;;;;;;3.30;1.50;;;22.80;1.00;;;;;;4960767;28;20511;-77
2023/09/18 10:13:49;;;;;;;3.60;1.40;;;22.90;1.00;;;;;;4959560;28;20455;-76
2023/09/18 10:16:18;;;;;;;5.33;1.57;;;23.00;1.00;;;;;;4959633;28;20510;-76
2023/09/18 10:19:01;;;;;;;3.07;1.30;;;23.10;1.00;;;;;;4961175;28;20858;-78
2023/09/18 10:21:32;;;;;;;3.00;1.73;;;23.20;1.00;;;;;;4960985;28;20588;-76
2023/09/18 10:24:07;;;;;;;3.47;1.50;;;23.30;1.00;;;;;;4962927;28;20460;-76
2023/09/18 10:26:43;;;;;;;2.53;1.47;;;23.50;1.00;;;;;;4959445;28;20502;-77
2023/09/18 10:29:13;;;;;;;2.73;1.67;;;23.50;1.00;;;;;;4960399;28;20491;-78
2023/09/18 10:31:41;;;;;;;3.40;1.47;;;23.50;1.00;;;;;;4957454;28;20451;-77
2023/09/18 10:34:09;;;;;;;5.23;1.77;;;23.60;1.00;;;;;;4968821;28;20459;-77
2023/09/18 10:36:38;;;;;;;4.83;2.20;;;23.80;1.00;;;;;;4963216;28;20468;-77
2023/09/18 10:39:08;;;;;;;3.13;1.80;;;24.20;1.00;;;;;;4971218;28;20928;-77
2023/09/18 10:41:36;;;;;;;2.70;1.50;;;24.40;99.90;;;;;;4954150;28;20507;-78
2023/09/18 10:44:04;;;;;;;4.20;1.80;;;24.50;99.90;;;;;;4970314;28;20464;-77
2023/09/18 10:46:33;;;;;;;3.30;1.50;;;24.90;99.90;;;;;;4971423;28;20534;-77
2023/09/18 10:49:01;;;;;;;3.63;1.63;;;25.40;1.00;;;;;;4972242;28;20503;-77
2023/09/18 10:51:29;;;;;;;5.10;1.73;;;26.00;1.00;;;;;;4969435;28;20546;-78
2023/09/18 10:53:57;;;;;;;3.50;1.70;;;26.50;99.90;;;;;;4961312;28;20958;-77
2023/09/18 10:56:26;;;;;;;5.33;1.73;;;27.00;57.80;;;;;;4961041;28;20856;-79
2023/09/18 10:58:58;;;;;;;5.87;1.50;;;26.90;99.90;;;;;;4969071;28;20779;-78
2023/09/18 11:01:27;;;;;;;4.63;1.33;;;27.10;99.90;;;;;;4968898;28;20456;-79
2023/09/18 11:03:59;;;;;;;5.57;1.60;;;27.20;99.90;;;;;;4970319;28;20459;-78
2023/09/18 11:06:27;;;;;;;4.83;1.83;;;27.40;99.90;;;;;;4966140;28;20479;-78
2023/09/18 11:09:03;;;;;;;3.33;1.57;;;27.60;99.90;;;;;;4964268;28;20491;-79
2023/09/18 11:11:32;;;;;;;2.73;1.30;;;27.60;99.90;;;;;;4965004;28;20859;-78
2023/09/18 11:14:01;;;;;;;3.17;1.40;;;28.00;1.00;;;;;;4966264;28;20911;-79
2023/09/18 11:16:38;;;;;;;2.40;1.30;;;28.00;1.00;;;;;;4968098;28;20464;-77
2023/09/18 11:19:17;;;;;;;4.40;2.00;;;28.20;14.20;;;;;;4972320;28;20482;-78
2023/09/18 11:21:45;;;;;;;5.77;2.00;;;28.30;1.00;;;;;;4963670;28;20845;-77
2023/09/18 11:24:18;;;;;;;2.73;1.37;;;28.60;99.90;;;;;;4962228;28;20460;-78
2023/09/18 11:26:47;;;;;;;5.70;1.87;;;28.80;77.20;;;;;;4961027;28;21104;-79
2023/09/18 11:29:18;;;;;;;2.97;1.40;;;28.60;1.00;;;;;;4967391;28;20503;-77
2023/09/18 11:31:50;;;;;;;3.30;1.57;;;28.60;1.00;;;;;;4968701;28;20546;-78
2023/09/18 11:34:23;;;;;;;2.90;1.53;;;28.40;1.00;;;;;;4963341;28;20911;-79
2023/09/18 11:36:51;;;;;;;4.67;1.50;;;28.50;1.00;;;;;;4967488;28;20464;-78
2023/09/18 11:39:38;;;;;;;8.87;2.20;;;28.40;1.00;;;;;;4966688;28;20463;-78
2023/09/18 11:42:12;;;;;;;2.57;1.20;;;28.00;1.00;;;;;;4967766;28;20515;-78
2023/09/18 11:44:45;;;;;;;4.00;1.70;;;27.60;1.00;;;;;;4964410;28;20482;-78
2023/09/18 11:47:17;;;;;;;7.27;1.77;;;26.90;1.00;;;;;;4971397;28;20459;-78
2023/09/18 11:49:52;;;;;;;2.90;1.83;;;27.10;99.90;;;;;;4965312;28;20632;-79
2023/09/18 11:52:19;;;;;;;2.13;1.33;;;27.60;99.90;;;;;;4968117;28;20846;-79
2023/09/18 11:54:47;;;;;;;3.53;1.60;;;27.50;1.00;;;;;;4963971;28;20512;-78
2023/09/18 11:57:14;;;;;;;3.37;1.63;;;26.90;1.00;;;;;;4963006;28;20456;-79
2023/09/18 11:59:43;;;;;;;2.70;1.37;;;26.70;99.90;;;;;;4965966;28;20477;-79
2023/09/18 12:02:11;;;;;;;3.13;1.67;;;26.30;99.90;;;;;;4964931;28;20460;-79
2023/09/18 12:04:39;;;;;;;2.30;1.30;;;26.30;99.90;;;;;;4975160;28;20459;-79
2023/09/18 12:07:08;;;;;;;3.40;1.40;;;26.10;1.00;;;;;;4971366;28;21051;-78
2023/09/18 12:09:36;;;;;;;3.60;1.77;;;25.80;99.90;;;;;;4964805;28;20499;-78
2023/09/18 12:12:07;;;;;;;4.00;1.90;;;25.50;1.00;;;;;;4966872;28;20520;-77
2023/09/18 12:14:34;;;;;;;3.83;1.70;;;25.30;1.00;;;;;;4972524;28;20814;-78
2023/09/18 12:17:02;;;;;;;5.40;1.80;;;25.10;99.90;;;;;;4959789;28;20463;-78
2023/09/18 12:19:29;;;;;;;4.53;1.67;;;25.10;99.90;;;;;;4971049;28;20575;-78
2023/09/18 12:21:59;;;;;;;2.80;1.50;;;24.70;99.90;;;;;;4971639;28;20447;-78
2023/09/18 12:24:28;;;;;;;2.83;1.67;;;24.70;1.00;;;;;;4967631;28;20562;-78
2023/09/18 12:26:55;;;;;;;3.73;1.43;;;24.40;1.00;;;;;;4965602;28;20456;-78
2023/09/18 12:29:23;;;;;;;2.53;1.40;;;24.20;99.90;;;;;;4968354;28;20504;-78
2023/09/18 12:31:52;;;;;;;3.00;1.30;;;24.30;99.90;;;;;;4966668;28;20492;-78
2023/09/18 12:34:21;;;;;;;4.47;1.80;;;24.90;26.50;;;;;;4959692;28;20556;-78
2023/09/18 12:36:48;;;;;;;3.20;1.80;;;26.10;93.20;;;;;;4966644;28;20843;-78
2023/09/18 12:39:16;;;;;;;7.33;1.77;;;27.00;99.90;;;;;;4969271;28;20469;-79
2023/09/18 12:41:44;;;;;;;6.17;1.83;;;27.70;1.00;;;;;;4968431;28;21025;-78
2023/09/18 12:44:14;;;;;;;2.77;1.30;;;28.30;16.20;;;;;;4965982;28;20457;-78
2023/09/18 12:46:42;;;;;;;2.90;1.40;;;28.90;1.00;;;;;;4970535;28;20464;-78
2023/09/18 12:49:19;;;;;;;4.63;1.97;;;29.40;1.00;;;;;;4970325;28;20506;-78
2023/09/18 12:51:55;;;;;;;4.50;1.90;;;29.60;1.00;;;;;;4962896;28;20463;-80
2023/09/18 12:54:22;;;;;;;4.70;1.50;;;29.20;1.00;;;;;;4971282;28;20813;-80